Time;durP1;ratioP1;P1;durP2;ratioP2;P2;SDS_P1;SDS_P2;PMS_P1;PMS_P2;Temp;Humidity;BMP_temperature;BMP_pressure;BME280_temperature;BME280_humidity;BME280_pressure;Samples;Min_cycle;Max_cycle;Signal;HPM_P1;HPM_P2
2022/11/22 05:02:43;;;;;;;19.15;13.32;;;;;;;5.72;96.87;99619.84;5614712;31;79927;-54
2022/11/22 05:05:45;;;;;;;17.17;11.93;;;;;;;5.80;90.21;99629.97;5603371;31;33481;-55
2022/11/22 05:08:47;;;;;;;18.25;12.57;;;;;;;5.91;92.51;99631.56;5600510;31;35120;-55
2022/11/22 05:11:50;;;;;;;16.23;12.50;;;;;;;5.88;93.73;99632.88;5602346;31;33605;-55
2022/11/22 05:14:52;;;;;;;16.75;12.20;;;;;;;6.01;94.56;99634.25;5603071;31;34163;-54
2022/11/22 05:17:54;;;;;;;18.33;13.13;;;;;;;5.93;100.00;99626.00;5603800;31;34321;-54
2022/11/22 05:20:58;;;;;;;17.98;12.93;;;;;;;6.25;100.00;99639.00;5602619;31;33612;-55
2022/11/22 05:24:01;;;;;;;17.05;12.60;;;;;;;5.86;84.38;99632.38;5603350;31;33551;-55
2022/11/22 05:27:03;;;;;;;17.10;12.98;;;;;;;5.97;100.00;99627.06;5603283;31;33988;-55
2022/11/22 05:30:06;;;;;;;16.62;12.50;;;;;;;5.69;89.15;99636.34;5602649;31;34298;-55
2022/11/22 05:33:08;;;;;;;16.50;11.73;;;;;;;5.54;82.56;99643.25;5591268;31;34229;-55
2022/11/22 05:36:11;;;;;;;18.08;12.02;;;;;;;5.45;82.54;99642.19;5589176;31;33605;-55
2022/11/22 05:39:13;;;;;;;15.77;11.75;;;;;;;5.26;90.76;99639.22;5603654;31;33637;-55
2022/11/22 05:42:16;;;;;;;15.65;12.00;;;;;;;5.37;83.90;99640.06;5603025;31;32048;-56
2022/11/22 05:45:18;;;;;;;16.17;11.52;;;;;;;5.29;87.26;99640.56;5603376;31;33833;-54
2022/11/22 05:48:20;;;;;;;16.80;12.63;;;;;;;5.54;100.00;99639.81;5584555;31;33567;-55
2022/11/22 05:51:25;;;;;;;18.20;12.57;;;;;;;5.40;87.78;99624.38;5580835;31;34219;-55
2022/11/22 05:54:35;;;;;;;14.43;11.55;;;;;;;5.70;100.00;99627.31;5595995;31;33659;-56
2022/11/22 05:57:37;;;;;;;14.98;11.40;;;;;;;5.47;84.20;99640.06;5565036;32;33737;-55
2022/11/22 06:00:39;;;;;;;17.02;11.57;;;;;;;5.26;84.42;99641.88;5571615;31;33850;-55
2022/11/22 06:03:42;;;;;;;18.23;12.95;;;;;;;5.37;80.37;99648.81;5568064;31;34317;-54
2022/11/22 06:06:45;;;;;;;18.87;12.82;;;;;;;5.40;95.17;99658.13;5572904;31;34383;-55
2022/11/22 06:09:48;;;;;;;20.88;12.60;;;;;;;5.54;89.72;99669.06;5580784;31;33668;-55
2022/11/22 06:12:50;;;;;;;17.12;12.48;;;;;;;5.42;80.68;99662.09;5589181;31;33821;-55
2022/11/22 06:15:58;;;;;;;17.08;12.85;;;;;;;5.71;93.75;99664.28;5551023;31;34434;-54
2022/11/22 06:19:01;;;;;;;19.65;13.32;;;;;;;5.63;83.82;99675.44;5554709;32;34188;-55
2022/11/22 06:22:03;;;;;;;20.40;13.27;;;;;;;5.76;98.48;99674.94;5554964;31;34346;-55
2022/11/22 06:25:06;;;;;;;18.25;13.48;;;;;;;5.67;89.02;99676.50;5557040;32;33683;-55
2022/11/22 06:28:08;;;;;;;17.52;13.02;;;;;;;5.93;99.14;99673.87;5561888;32;33594;-55
2022/11/22 06:31:16;;;;;;;17.52;13.23;;;;;;;6.23;95.81;99668.56;5572470;31;33958;-56
2022/11/22 06:34:18;;;;;;;17.90;12.77;;;;;;;5.95;86.18;99672.53;5568264;31;33736;-55
2022/11/22 06:37:20;;;;;;;17.60;12.68;;;;;;;6.28;90.21;99660.53;5565497;31;34426;-55
2022/11/22 06:40:23;;;;;;;16.25;11.70;;;;;;;6.20;99.20;99655.78;5557185;31;33561;-54
2022/11/22 06:43:27;;;;;;;19.87;13.02;;;;;;;6.35;97.87;99654.94;5549903;32;32060;-55
2022/11/22 06:46:30;;;;;;;18.40;12.70;;;;;;;6.22;86.82;99658.94;5554535;32;33274;-55
2022/11/22 06:49:32;;;;;;;15.57;12.13;;;;;;;6.03;79.38;99672.03;5553578;31;34093;-55
2022/11/22 06:52:35;;;;;;;18.58;12.07;;;;;;;6.12;86.91;99665.09;5568061;31;33656;-55
2022/11/22 06:55:37;;;;;;;16.42;11.85;;;;;;;6.05;83.05;99664.56;5559507;32;33687;-54
2022/11/22 06:59:02;;;;;;;16.75;12.15;;;;;;;6.08;84.81;99668.56;5559049;31;33634;-54
2022/11/22 07:02:05;;;;;;;18.08;12.77;;;;;;;5.91;84.17;99666.13;5574167;31;33903;-54
2022/11/22 07:05:08;;;;;;;19.05;13.38;;;;;;;5.80;87.17;99662.69;5566629;32;34381;-55
2022/11/22 07:08:27;;;;;;;26.52;13.40;;;;;;;5.79;95.48;99677.03;5565382;31;33662;-55
2022/11/22 07:11:31;;;;;;;22.50;13.70;;;;;;;6.15;100.00;99668.28;5551655;32;33730;-55
2022/11/22 07:14:33;;;;;;;23.42;14.48;;;;;;;6.39;97.08;99656.03;5559483;31;33335;-55
2022/11/22 07:17:35;;;;;;;20.85;14.30;;;;;;;6.28;90.96;99667.72;5570026;31;34407;-54
2022/11/22 07:20:37;;;;;;;17.60;12.50;;;;;;;6.07;82.56;99674.94;5559013;32;34345;-55
2022/11/22 07:23:41;;;;;;;60.25;26.98;;;;;;;6.14;100.00;99667.50;5548158;32;33265;-55
2022/11/22 07:26:43;;;;;;;34.95;18.77;;;;;;;6.66;96.23;99662.88;5562875;31;33514;-54
2022/11/22 07:29:46;;;;;;;40.58;24.17;;;;;;;6.42;95.79;99674.09;5568899;31;33614;-54
2022/11/22 07:32:48;;;;;;;21.30;14.25;;;;;;;6.62;100.00;99664.47;5567862;31;33604;-55
2022/11/22 07:35:50;;;;;;;20.58;12.95;;;;;;;6.28;86.81;99668.53;5554224;32;34280;-55
2022/11/22 07:38:52;;;;;;;21.95;14.32;;;;;;;6.66;96.37;99666.31;5559408;31;34315;-55
2022/11/22 07:41:54;;;;;;;18.27;13.82;;;;;;;6.32;85.44;99676.78;5571701;31;34292;-55
2022/11/22 07:44:57;;;;;;;18.55;13.00;;;;;;;6.38;91.43;99669.59;5575106;31;34418;-54
2022/11/22 07:48:00;;;;;;;18.02;12.55;;;;;;;6.30;79.85;99670.94;5566991;31;34359;-55
2022/11/22 07:51:04;;;;;;;21.42;14.25;;;;;;;6.59;92.86;99682.59;5558753;31;34239;-55
2022/11/22 07:54:11;;;;;;;18.75;13.62;;;;;;;6.41;99.46;99666.37;5558074;31;32155;-55
2022/11/22 07:57:13;;;;;;;19.40;13.90;;;;;;;6.54;90.76;99663.16;5568625;31;33288;-55
2022/11/22 08:00:17;;;;;;;20.67;13.35;;;;;;;6.61;86.38;99668.19;5569339;31;33680;-55
2022/11/22 08:03:19;;;;;;;19.37;13.05;;;;;;;6.46;88.56;99661.84;5561193;31;33681;-54
2022/11/22 08:06:29;;;;;;;18.00;12.73;;;;;;;6.44;90.66;99661.31;5556942;32;33571;-54
2022/11/22 08:09:32;;;;;;;19.27;14.63;;;;;;;6.61;96.36;99658.34;5560078;31;34431;-55
2022/11/22 08:12:35;;;;;;;22.60;13.32;;;;;;;6.84;88.20;99654.25;5553481;32;33651;-55
2022/11/22 08:15:37;;;;;;;22.30;13.95;;;;;;;6.83;82.99;99655.34;5553574;32;33606;-55
2022/11/22 08:18:40;;;;;;;19.50;13.23;;;;;;;6.87;89.39;99656.38;5558905;31;33816;-54
2022/11/22 08:21:44;;;;;;;19.35;13.13;;;;;;;6.83;88.90;99652.69;5572805;31;33617;-57
2022/11/22 08:24:46;;;;;;;23.15;13.70;;;;;;;6.56;94.07;99647.72;5555965;31;33621;-55
2022/11/22 08:27:48;;;;;;;17.98;12.65;;;;;;;6.88;88.17;99646.50;5549984;31;33493;-55
2022/11/22 08:30:50;;;;;;;22.90;13.07;;;;;;;6.96;90.06;99648.63;5562193;31;34426;-55
2022/11/22 08:33:53;;;;;;;19.25;13.57;;;;;;;6.80;80.47;99634.56;5558277;32;32933;-55
2022/11/22 08:36:55;;;;;;;34.03;13.15;;;;;;;6.91;89.82;99643.31;5560885;32;33110;-55
2022/11/22 08:39:57;;;;;;;19.12;12.63;;;;;;;6.73;84.02;99647.38;5548178;32;34343;-54
2022/11/22 08:43:01;;;;;;;21.27;12.82;;;;;;;6.97;98.42;99651.00;5549760;32;33724;-55
2022/11/22 08:46:04;;;;;;;20.40;12.70;;;;;;;6.92;92.62;99650.22;5561953;31;33595;-54
2022/11/22 08:49:06;;;;;;;21.50;12.37;;;;;;;6.84;81.55;99654.25;5566074;31;33696;-55
2022/11/22 08:52:08;;;;;;;40.33;13.57;;;;;;;6.51;82.94;99651.16;5558884;32;33661;-55
2022/11/22 08:55:11;;;;;;;20.90;13.38;;;;;;;6.59;87.71;99647.19;5563947;31;33616;-55
2022/11/22 08:58:13;;;;;;;20.25;13.15;;;;;;;6.50;85.07;99646.91;5556450;31;33311;-55
2022/11/22 09:01:17;;;;;;;22.48;13.50;;;;;;;7.02;94.61;99645.66;5562315;31;33642;-54
2022/11/22 09:04:19;;;;;;;20.58;13.45;;;;;;;6.89;82.05;99648.91;5568379;31;34282;-55
2022/11/22 09:07:22;;;;;;;22.10;12.98;;;;;;;6.99;88.13;99646.22;5579465;31;33583;-55
2022/11/22 09:10:49;;;;;;;37.53;13.80;;;;;;;7.21;90.39;99634.34;5564557;32;34331;-55
2022/11/22 09:13:51;;;;;;;23.35;13.23;;;;;;;7.28;100.00;99646.31;5555539;31;33741;-55
2022/11/22 09:16:54;;;;;;;23.62;14.40;;;;;;;7.38;93.86;99644.66;5565328;32;33253;-55
2022/11/22 09:19:56;;;;;;;24.00;14.65;;;;;;;7.73;100.00;99632.94;5566172;31;33641;-55
2022/11/22 09:23:00;;;;;;;21.98;13.35;;;;;;;7.46;85.28;99628.06;5563871;31;33780;-55
2022/11/22 09:26:08;;;;;;;22.55;13.85;;;;;;;7.27;91.18;99630.59;5553650;31;34302;-55
2022/11/22 09:29:10;;;;;;;23.25;14.38;;;;;;;7.41;84.79;99628.09;5554438;32;33361;-55
2022/11/22 09:32:12;;;;;;;22.80;14.77;;;;;;;7.49;91.48;99625.66;5553510;32;33573;-55
2022/11/22 09:35:18;;;;;;;22.62;14.23;;;;;;;7.46;86.62;99625.41;5565796;31;33964;-55
2022/11/22 09:38:20;;;;;;;23.73;14.87;;;;;;;7.64;85.44;99615.94;5552840;31;33724;-55
2022/11/22 09:41:41;;;;;;;24.25;14.70;;;;;;;7.46;85.15;99618.19;5569792;31;33627;-55
2022/11/22 09:44:57;;;;;;;24.77;15.63;;;;;;;7.43;82.96;99608.09;5566991;32;33819;-55
2022/11/22 09:48:15;;;;;;;23.45;15.05;;;;;;;7.63;84.41;99599.13;5565264;31;34062;-55
2022/11/22 09:51:26;;;;;;;26.42;16.62;;;;;;;7.62;96.12;99594.88;5569226;31;34194;-55
2022/11/22 09:54:37;;;;;;;27.75;16.15;;;;;;;7.71;86.94;99593.19;5568824;31;33701;-54
2022/11/22 09:57:50;;;;;;;26.12;15.15;;;;;;;8.11;95.95;99585.06;5556711;31;33712;-56
2022/11/22 10:01:00;;;;;;;23.45;14.98;;;;;;;8.21;91.95;99585.78;5571804;31;33736;-55
2022/11/22 10:04:09;;;;;;;26.58;16.00;;;;;;;8.20;91.04;99576.16;5557217;32;33797;-56
2022/11/22 10:07:28;;;;;;;29.17;15.85;;;;;;;8.20;84.19;99578.03;5569621;31;33321;-55
2022/11/22 10:10:40;;;;;;;25.37;16.55;;;;;;;8.14;88.54;99576.50;5562819;31;33231;-55
2022/11/22 10:13:51;;;;;;;27.05;16.15;;;;;;;8.05;83.29;99565.66;5565163;32;34508;-55
2022/11/22 10:17:14;;;;;;;26.37;15.80;;;;;;;7.97;87.22;99556.38;5548883;32;34622;-56
2022/11/22 10:20:28;;;;;;;26.17;15.57;;;;;;;8.15;91.51;99554.88;5567499;31;33709;-55
2022/11/22 10:23:31;;;;;;;24.02;15.15;;;;;;;8.38;85.70;99558.66;5563734;32;34545;-55
2022/11/22 10:26:35;;;;;;;25.83;15.40;;;;;;;8.24;84.29;99560.38;5553402;31;33656;-55
2022/11/22 10:30:04;;;;;;;26.25;15.73;;;;;;;8.14;84.58;99542.59;5556204;31;33733;-55
2022/11/22 10:33:15;;;;;;;25.65;15.45;;;;;;;8.18;82.38;99550.84;5572764;31;33696;-54
2022/11/22 10:36:35;;;;;;;26.30;16.55;;;;;;;8.32;92.79;99551.75;5559102;31;33762;-55
2022/11/22 10:39:57;;;;;;;29.35;16.70;;;;;;;8.07;84.83;99549.34;5552448;32;34027;-55
2022/11/22 10:43:17;;;;;;;26.08;15.80;;;;;;;8.54;93.59;99543.22;5552750;31;33761;-55
2022/11/22 10:46:58;;;;;;;27.27;17.33;;;;;;;8.69;93.34;99536.87;5561986;31;33429;-55
2022/11/22 10:50:28;;;;;;;25.17;16.48;;;;;;;8.50;84.88;99530.72;5555524;32;34054;-55
2022/11/22 10:53:39;;;;;;;28.87;17.17;;;;;;;8.74;94.35;99512.78;5560788;31;33858;-55
2022/11/22 10:57:02;;;;;;;25.98;16.73;;;;;;;8.61;82.58;99506.28;5560898;31;34322;-55
2022/11/22 11:00:19;;;;;;;26.73;16.70;;;;;;;8.68;89.59;99501.34;5571211;31;33860;-54
2022/11/22 11:03:31;;;;;;;27.87;17.20;;;;;;;8.79;88.34;99501.22;5578172;31;34447;-55
2022/11/22 11:06:41;;;;;;;26.37;16.95;;;;;;;8.69;80.49;99496.81;5552715;32;34467;-55
2022/11/22 11:10:16;;;;;;;23.00;16.45;;;;;;;8.72;86.48;99488.22;5587264;31;34433;-55
2022/11/22 11:13:33;;;;;;;25.95;17.45;;;;;;;8.82;91.36;99473.91;5550170;32;33616;-55
2022/11/22 11:16:37;;;;;;;26.48;17.58;;;;;;;8.75;80.20;99474.28;5559974;32;33673;-55
2022/11/22 11:19:43;;;;;;;27.37;17.77;;;;;;;8.74;80.55;99459.34;5568809;31;34433;-55
2022/11/22 11:22:45;;;;;;;28.00;17.60;;;;;;;8.88;83.73;99464.75;5564934;32;33678;-55
2022/11/22 11:26:19;;;;;;;24.80;17.20;;;;;;;8.70;83.70;99463.66;5563873;32;34427;-55
2022/11/22 11:29:29;;;;;;;25.70;16.77;;;;;;;8.85;87.81;99463.44;5554209;31;33371;-55
2022/11/22 11:32:51;;;;;;;25.25;17.17;;;;;;;8.95;83.66;99446.44;5560158;32;33703;-54
2022/11/22 11:36:05;;;;;;;24.65;17.05;;;;;;;8.98;78.43;99434.38;5549265;32;34334;-55
2022/11/22 11:39:22;;;;;;;28.05;17.60;;;;;;;9.09;80.60;99430.44;5564913;31;33743;-55
2022/11/22 11:42:34;;;;;;;25.10;17.15;;;;;;;8.91;76.97;99432.09;5553346;32;33669;-55
2022/11/22 11:45:36;;;;;;;23.67;15.85;;;;;;;8.78;80.19;99428.28;5563912;31;34056;-55
2022/11/22 11:48:42;;;;;;;26.60;17.17;;;;;;;8.81;84.29;99419.69;5559478;31;33620;-54
2022/11/22 11:51:47;;;;;;;23.58;17.08;;;;;;;9.13;87.45;99418.06;5559509;31;33094;-55
2022/11/22 11:54:54;;;;;;;24.63;16.98;;;;;;;9.18;80.30;99418.78;5565991;31;33697;-55
2022/11/22 11:57:56;;;;;;;26.60;19.05;;;;;;;9.06;89.76;99406.97;5563403;31;33871;-55
2022/11/22 12:00:59;;;;;;;25.58;17.77;;;;;;;8.98;80.90;99413.78;5568167;31;34289;-56
2022/11/22 12:04:04;;;;;;;29.60;19.50;;;;;;;8.88;84.71;99408.59;5555363;31;33769;-55
2022/11/22 12:07:18;;;;;;;30.52;19.58;;;;;;;8.79;88.48;99399.66;5558435;31;33586;-55
2022/11/22 12:10:46;;;;;;;30.30;20.25;;;;;;;8.64;85.54;99398.84;5566769;31;34435;-55
2022/11/22 12:14:02;;;;;;;28.02;19.30;;;;;;;8.86;78.70;99395.53;5559692;31;33878;-55
2022/11/22 12:17:29;;;;;;;30.40;18.35;;;;;;;8.57;81.50;99386.91;5560611;31;33862;-56
2022/11/22 12:20:59;;;;;;;28.70;18.58;;;;;;;8.83;90.13;99374.72;5551397;32;34386;-55
2022/11/22 12:24:18;;;;;;;28.25;18.15;;;;;;;8.96;88.53;99370.50;5556871;32;34366;-56
2022/11/22 12:27:41;;;;;;;30.08;19.75;;;;;;;9.18;96.66;99361.84;5565577;31;34215;-55
2022/11/22 12:30:51;;;;;;;28.85;20.00;;;;;;;9.20;96.41;99356.97;5568541;32;34529;-55
2022/11/22 12:34:01;;;;;;;32.95;20.27;;;;;;;9.39;88.60;99365.72;5568133;31;33791;-55
2022/11/22 12:37:19;;;;;;;38.58;21.60;;;;;;;9.25;81.18;99354.22;5564785;31;34374;-55
2022/11/22 12:40:31;;;;;;;31.15;19.67;;;;;;;9.06;84.79;99356.97;5568217;31;33768;-55
2022/11/22 12:43:36;;;;;;;31.42;20.08;;;;;;;8.93;84.16;99360.41;5570982;31;34424;-55
2022/11/22 12:46:43;;;;;;;31.90;20.62;;;;;;;8.85;86.50;99353.06;5568674;32;33643;-55
2022/11/22 12:49:50;;;;;;;32.67;21.20;;;;;;;8.77;84.85;99343.81;5568501;32;33281;-55
2022/11/22 12:53:11;;;;;;;31.00;19.87;;;;;;;8.66;81.57;99347.75;5568613;31;33978;-56
2022/11/22 12:56:26;;;;;;;34.30;20.70;;;;;;;8.81;84.23;99352.87;5565009;32;33631;-55
2022/11/22 12:59:47;;;;;;;33.53;21.60;;;;;;;8.64;80.76;99342.72;5566378;31;33723;-55
2022/11/22 13:03:04;;;;;;;30.20;19.15;;;;;;;8.43;78.97;99336.91;5567519;32;34366;-55
2022/11/22 13:06:09;;;;;;;31.75;20.35;;;;;;;8.54;85.53;99339.41;5567994;32;34566;-54
2022/11/22 13:09:16;;;;;;;31.17;20.35;;;;;;;8.53;81.18;99337.81;5553546;32;33472;-55
2022/11/22 13:12:29;;;;;;;29.42;18.75;;;;;;;8.52;82.44;99338.91;5556967;32;34269;-55
2022/11/22 13:15:35;;;;;;;26.83;17.87;;;;;;;8.63;84.95;99325.09;5566389;32;33735;-54
2022/11/22 13:18:42;;;;;;;26.50;18.65;;;;;;;8.63;83.81;99329.66;5567939;32;34387;-55
2022/11/22 13:21:44;;;;;;;29.42;18.80;;;;;;;8.52;89.71;99337.03;5568379;32;33821;-55
2022/11/22 13:25:15;;;;;;;31.15;18.10;;;;;;;8.41;80.89;99346.28;5569259;32;34457;-55
2022/11/22 13:28:24;;;;;;;32.63;18.12;;;;;;;8.31;84.78;99349.06;5569289;32;34347;-55
2022/11/22 13:31:26;;;;;;;24.17;16.65;;;;;;;8.42;82.96;99347.88;5569928;32;33709;-55
2022/11/22 13:34:29;;;;;;;29.12;17.85;;;;;;;8.68;94.34;99350.94;5569091;32;34329;-55
2022/11/22 13:37:42;;;;;;;26.62;17.20;;;;;;;8.60;90.34;99346.25;5550982;32;33839;-55
2022/11/22 13:40:49;;;;;;;25.42;16.85;;;;;;;8.67;85.78;99346.66;5555959;32;33735;-55
2022/11/22 13:43:58;;;;;;;27.55;16.70;;;;;;;8.35;87.68;99336.75;5563474;32;33738;-55
2022/11/22 13:47:03;;;;;;;26.05;16.45;;;;;;;8.58;89.31;99337.75;5569900;32;33690;-55
2022/11/22 13:50:39;;;;;;;26.00;15.88;;;;;;;8.53;92.91;99335.16;5551754;32;33699;-55
2022/11/22 13:53:44;;;;;;;22.65;15.00;;;;;;;8.40;90.31;99334.81;5549765;32;34340;-55
2022/11/22 13:56:47;;;;;;;24.12;14.23;;;;;;;8.47;85.41;99332.56;5550663;32;34325;-57
2022/11/22 14:00:13;;;;;;;22.15;15.40;;;;;;;8.47;86.90;99329.87;5569145;32;33377;-55
2022/11/22 14:03:25;;;;;;;25.48;15.43;;;;;;;8.37;83.88;99326.56;5570344;31;33266;-55
2022/11/22 14:06:29;;;;;;;24.15;15.10;;;;;;;8.19;87.55;99328.97;5570305;32;33745;-55
2022/11/22 14:09:33;;;;;;;23.27;15.68;;;;;;;7.96;99.57;99324.50;5570253;32;33703;-55
2022/11/22 14:12:41;;;;;;;26.10;15.27;;;;;;;8.12;86.96;99325.88;5570446;32;33716;-55
2022/11/22 14:15:54;;;;;;;20.80;14.13;;;;;;;8.36;94.96;99323.09;5570490;32;33727;-55
2022/11/22 14:19:10;;;;;;;21.92;14.65;;;;;;;8.39;88.37;99324.44;5570179;32;34383;-55
2022/11/22 14:22:46;;;;;;;21.83;14.85;;;;;;;8.43;96.21;99323.53;5570092;32;33681;-56
2022/11/22 14:26:12;;;;;;;24.12;14.60;;;;;;;8.31;82.52;99314.34;5570228;32;33739;-55
2022/11/22 14:29:39;;;;;;;25.83;15.75;;;;;;;8.16;92.73;99337.53;5569238;32;34482;-56
2022/11/22 14:33:03;;;;;;;22.30;15.50;;;;;;;8.02;80.57;99339.34;5569450;32;34372;-55
2022/11/22 14:36:05;;;;;;;19.92;14.27;;;;;;;8.04;81.76;99339.84;5569431;32;34405;-55
2022/11/22 14:39:42;;;;;;;22.45;13.85;;;;;;;7.97;88.13;99332.19;5570014;32;34286;-54
2022/11/22 14:42:47;;;;;;;22.48;14.18;;;;;;;7.93;82.09;99331.19;5550007;31;33724;-55
2022/11/22 14:45:59;;;;;;;27.73;15.02;;;;;;;7.74;81.65;99323.16;5569862;32;33638;-55
2022/11/22 14:49:27;;;;;;;21.73;14.10;;;;;;;7.80;92.99;99334.56;5570007;32;34355;-55
2022/11/22 14:52:31;;;;;;;22.20;14.90;;;;;;;7.94;86.54;99340.78;5569681;32;33901;-55
2022/11/22 14:55:34;;;;;;;21.80;14.70;;;;;;;7.65;85.23;99332.91;5569832;32;34410;-55
2022/11/22 14:59:00;;;;;;;21.95;14.13;;;;;;;7.81;88.73;99330.03;5569379;32;34382;-55
2022/11/22 15:02:40;;;;;;;20.77;14.65;;;;;;;7.59;81.58;99326.03;5568148;32;33677;-55
2022/11/22 15:06:19;;;;;;;20.33;13.50;;;;;;;7.88;88.02;99327.78;5569308;32;33679;-55
2022/11/22 15:09:59;;;;;;;23.25;15.43;;;;;;;8.18;91.43;99326.59;5569413;32;33615;-56
2022/11/22 15:13:20;;;;;;;23.58;15.13;;;;;;;8.00;80.74;99317.50;5569245;32;33583;-55
2022/11/22 15:16:26;;;;;;;25.52;14.98;;;;;;;7.93;81.18;99317.84;5568716;32;34472;-55
2022/11/22 15:19:50;;;;;;;23.35;14.95;;;;;;;7.89;80.90;99324.06;5569351;32;33993;-55
2022/11/22 15:23:25;;;;;;;20.80;14.77;;;;;;;8.12;94.99;99331.19;5568727;32;33262;-55
2022/11/22 15:26:48;;;;;;;22.60;14.55;;;;;;;8.01;83.04;99324.41;5569067;32;33567;-55
2022/11/22 15:30:14;;;;;;;23.25;15.70;;;;;;;7.99;85.34;99321.25;5569023;32;33253;-55
2022/11/22 15:33:36;;;;;;;24.35;15.18;;;;;;;7.86;85.15;99327.31;5565786;32;34298;-55
2022/11/22 15:37:18;;;;;;;23.02;14.87;;;;;;;7.64;83.33;99317.16;5567241;32;33581;-55
2022/11/22 15:40:41;;;;;;;24.33;14.85;;;;;;;7.86;87.10;99329.97;5568979;32;34293;-55
2022/11/22 15:44:07;;;;;;;22.13;14.43;;;;;;;7.75;87.04;99322.09;5568650;32;33733;-55
2022/11/22 15:47:30;;;;;;;24.27;15.15;;;;;;;7.88;93.48;99320.59;5568915;32;33656;-55
2022/11/22 15:51:21;;;;;;;21.75;14.25;;;;;;;8.07;83.36;99319.78;5568495;32;33541;-55
2022/11/22 15:54:44;;;;;;;24.05;15.40;;;;;;;8.09;94.57;99323.78;5568590;32;33799;-55
2022/11/22 15:58:11;;;;;;;20.75;14.25;;;;;;;8.20;88.53;99311.84;5569259;32;34458;-55
2022/11/22 16:01:16;;;;;;;23.73;15.48;;;;;;;8.24;85.10;99320.88;5568728;32;34137;-55
2022/11/22 16:04:28;;;;;;;21.45;14.87;;;;;;;8.19;88.53;99312.16;5568426;32;33694;-55
2022/11/22 16:07:35;;;;;;;23.60;15.25;;;;;;;8.41;93.90;99314.22;5568521;32;34442;-55
2022/11/22 16:10:43;;;;;;;24.40;15.82;;;;;;;8.25;82.47;99319.00;5568495;32;33654;-55
2022/11/22 16:13:46;;;;;;;21.60;14.68;;;;;;;8.06;77.66;99329.69;5568893;32;33850;-55
2022/11/22 16:16:48;;;;;;;30.52;15.48;;;;;;;7.94;84.28;99321.31;5568621;32;33755;-55
2022/11/22 16:19:51;;;;;;;24.90;16.00;;;;;;;8.07;83.39;99314.47;5569080;32;33839;-54
2022/11/22 16:23:09;;;;;;;22.08;14.98;;;;;;;8.00;79.95;99307.59;5568856;32;34266;-55
2022/11/22 16:26:17;;;;;;;24.17;15.73;;;;;;;7.98;85.88;99307.13;5568751;32;33656;-55
2022/11/22 16:29:28;;;;;;;23.17;16.40;;;;;;;8.08;81.34;99308.84;5568800;32;34403;-55
2022/11/22 16:32:31;;;;;;;24.87;15.70;;;;;;;7.91;79.71;99301.34;5568883;32;34337;-55
2022/11/22 16:35:33;;;;;;;25.73;14.70;;;;;;;7.95;84.94;99297.00;5568854;32;33572;-55
2022/11/22 16:38:35;;;;;;;24.75;14.80;;;;;;;8.40;95.24;99299.28;5568714;32;33599;-55
2022/11/22 16:41:38;;;;;;;22.80;14.50;;;;;;;8.69;88.62;99297.22;5569137;32;33976;-55
2022/11/22 16:44:40;;;;;;;19.48;13.68;;;;;;;9.08;78.85;99287.16;5568597;32;33725;-55
2022/11/22 16:47:43;;;;;;;20.90;14.07;;;;;;;9.09;89.39;99284.19;5568793;32;34412;-55
